createdAt,value
2023-02-14T00:00:39.281Z,39.50
2023-02-14T00:03:08.605Z,39.03
2023-02-14T00:05:38.074Z,40.52
2023-02-14T00:08:07.405Z,40.63
2023-02-14T00:10:36.983Z,39.67
2023-02-14T00:13:06.674Z,38.25
2023-02-14T00:15:35.915Z,41.45
2023-02-14T00:18:06.499Z,41.10
2023-02-14T00:20:37.010Z,39.58
2023-02-14T00:23:06.341Z,40.85
2023-02-14T00:25:36.303Z,40.43
2023-02-14T00:28:05.650Z,41.10
2023-02-14T00:30:36.111Z,39.75
2023-02-14T00:33:06.965Z,38.90
2023-02-14T00:35:39.093Z,37.65
2023-02-14T00:38:08.649Z,36.50
2023-02-14T00:40:39.800Z,38.08
2023-02-14T00:43:09.032Z,37.88
2023-02-14T00:45:38.365Z,39.42
2023-02-14T00:48:07.914Z,36.95
2023-02-14T00:50:37.138Z,36.90
2023-02-14T00:53:07.133Z,38.92
2023-02-14T00:55:36.377Z,37.93
2023-02-14T00:58:05.913Z,38.67
2023-02-14T01:00:35.203Z,38.70
2023-02-14T01:03:04.671Z,39.33
2023-02-14T01:05:33.899Z,40.73
2023-02-14T01:08:05.213Z,40.40
2023-02-14T01:10:35.015Z,38.88
2023-02-14T01:13:04.452Z,37.20
2023-02-14T01:15:38.554Z,36.35
2023-02-14T01:20:36.535Z,36.38
2023-02-14T01:23:06.459Z,39.42
2023-02-14T01:25:38.004Z,39.70
2023-02-14T01:28:08.048Z,39.30
2023-02-14T01:30:37.415Z,37.78
2023-02-14T01:33:06.797Z,39.75
2023-02-14T01:35:40.484Z,38.10
2023-02-14T01:38:09.727Z,38.65
2023-02-14T01:40:43.967Z,41.13
2023-02-14T01:43:17.464Z,39.27
2023-02-14T01:45:47.133Z,39.42
2023-02-14T01:48:17.793Z,40.33
2023-02-14T01:50:47.840Z,40.33
2023-02-14T01:53:20.267Z,40.15
2023-02-14T01:58:25.069Z,37.58
2023-02-14T02:00:59.317Z,39.55
2023-02-14T02:03:38.100Z,39.78
2023-02-14T02:06:10.508Z,39.75
2023-02-14T02:11:09.044Z,37.88
2023-02-14T02:13:38.506Z,39.63
2023-02-14T02:16:23.158Z,39.73
2023-02-14T02:19:05.917Z,39.53
2023-02-14T02:22:03.455Z,39.85
2023-02-14T02:24:58.741Z,38.75
2023-02-14T02:27:34.234Z,39.65
2023-02-14T02:30:24.902Z,38.80
2023-02-14T02:33:15.466Z,39.18
2023-02-14T02:36:06.329Z,40.17
2023-02-14T02:38:57.217Z,39.50
2023-02-14T02:41:47.808Z,39.08
2023-02-14T02:44:26.919Z,40.85
2023-02-14T02:47:05.568Z,39.75
2023-02-14T02:49:55.896Z,40.12
2023-02-14T02:52:58.310Z,41.00
2023-02-14T02:55:57.925Z,38.38
2023-02-14T02:58:31.098Z,38.88
2023-02-14T03:01:02.041Z,39.05
2023-02-14T03:03:52.748Z,39.45
2023-02-14T03:06:23.059Z,39.63
2023-02-14T03:08:52.523Z,39.78
2023-02-14T03:11:22.219Z,40.15
2023-02-14T03:14:00.631Z,39.20
2023-02-14T03:16:33.366Z,39.40
2023-02-14T03:19:14.970Z,40.40
2023-02-14T03:21:59.410Z,40.05
2023-02-14T03:24:47.503Z,40.12
2023-02-14T03:27:23.120Z,41.50
2023-02-14T03:29:55.735Z,39.67
2023-02-14T03:32:40.645Z,41.88
2023-02-14T03:35:13.393Z,39.40
2023-02-14T03:38:09.420Z,40.10
2023-02-14T03:40:49.687Z,40.40
2023-02-14T03:43:22.334Z,39.53
2023-02-14T03:45:55.145Z,40.85
2023-02-14T03:48:26.034Z,40.33
2023-02-14T03:50:55.729Z,39.48
2023-02-14T03:53:27.349Z,41.37
2023-02-14T03:56:18.491Z,40.73
2023-02-14T03:58:50.759Z,42.23
2023-02-14T04:01:26.018Z,41.53
2023-02-14T04:03:56.903Z,42.13
2023-02-14T04:06:26.273Z,42.53
2023-02-14T04:08:55.725Z,40.23
2023-02-14T04:11:25.049Z,41.73
2023-02-14T04:13:54.688Z,40.10
2023-02-14T04:16:24.011Z,42.13
2023-02-14T04:19:11.595Z,40.50
2023-02-14T04:21:41.294Z,38.85
2023-02-14T04:24:10.810Z,40.55
2023-02-14T04:26:41.738Z,39.27
2023-02-14T04:29:11.041Z,41.08
2023-02-14T04:31:40.578Z,42.80
2023-02-14T04:34:09.924Z,41.33
2023-02-14T04:36:39.532Z,42.08
2023-02-14T04:39:08.745Z,42.10
2023-02-14T04:41:38.337Z,42.33
2023-02-14T04:44:07.594Z,43.15
2023-02-14T04:46:37.180Z,43.50
2023-02-14T04:49:06.464Z,43.58
2023-02-14T04:51:35.736Z,42.65
2023-02-14T04:54:05.159Z,43.23
2023-02-14T04:56:34.406Z,42.25
2023-02-14T04:59:03.765Z,42.27
2023-02-14T05:01:33.056Z,44.15
2023-02-14T05:04:02.483Z,43.25
2023-02-14T05:06:32.914Z,44.53
2023-02-14T05:09:02.517Z,45.55
2023-02-14T05:11:32.403Z,46.85
2023-02-14T05:14:01.713Z,46.42
2023-02-14T05:16:31.490Z,46.20
2023-02-14T05:19:01.165Z,47.62
2023-02-14T05:21:32.085Z,49.00
2023-02-14T05:24:02.066Z,48.25
2023-02-14T05:26:31.841Z,49.95
2023-02-14T05:29:01.093Z,52.67
2023-02-14T05:31:30.778Z,52.60
2023-02-14T05:34:00.118Z,54.08
2023-02-14T05:36:29.382Z,53.08
2023-02-14T05:38:58.646Z,51.65
2023-02-14T05:41:28.058Z,51.75
2023-02-14T05:43:57.363Z,52.65
2023-02-14T05:46:26.729Z,51.70
2023-02-14T05:48:55.965Z,53.35
2023-02-14T05:51:25.509Z,54.23
2023-02-14T05:53:54.775Z,53.98
2023-02-14T05:56:24.135Z,53.05
2023-02-14T05:58:53.459Z,53.65
2023-02-14T06:01:23.035Z,52.25
2023-02-14T06:03:52.268Z,55.25
2023-02-14T06:06:21.560Z,56.02
2023-02-14T06:08:50.783Z,55.92
2023-02-14T06:11:20.375Z,56.10
2023-02-14T06:13:49.931Z,54.73
2023-02-14T06:16:19.379Z,54.33
2023-02-14T06:18:48.974Z,55.05
2023-02-14T06:21:18.251Z,53.98
2023-02-14T06:23:47.856Z,54.95
2023-02-14T06:26:17.188Z,53.35
2023-02-14T06:28:46.690Z,53.42
2023-02-14T06:31:17.855Z,51.83
2023-02-14T06:33:47.260Z,51.37
2023-02-14T06:36:16.761Z,47.40
2023-02-14T06:38:47.962Z,55.52
2023-02-14T06:41:18.215Z,51.08
2023-02-14T06:43:51.162Z,51.23
2023-02-14T06:46:20.944Z,51.77
2023-02-14T06:48:50.230Z,51.90
2023-02-14T06:51:19.456Z,55.03
2023-02-14T06:53:48.724Z,54.18
2023-02-14T06:56:17.968Z,56.42
2023-02-14T06:58:47.237Z,55.75
2023-02-14T07:01:16.868Z,58.40
2023-02-14T07:03:46.235Z,56.83
2023-02-14T07:06:15.714Z,57.20
2023-02-14T07:08:45.622Z,59.85
2023-02-14T07:11:15.060Z,61.88
2023-02-14T07:13:44.428Z,58.90
2023-02-14T07:16:13.731Z,58.90
2023-02-14T07:18:43.018Z,56.80
2023-02-14T07:21:12.421Z,57.70
2023-02-14T07:23:54.993Z,56.80
2023-02-14T07:28:52.957Z,60.48
2023-02-14T07:31:23.859Z,63.78
2023-02-14T07:33:53.269Z,65.30
2023-02-14T07:36:22.523Z,66.30
2023-02-14T07:38:51.760Z,66.30
2023-02-14T07:41:21.043Z,67.50
2023-02-14T07:43:50.783Z,66.55
2023-02-14T07:46:20.119Z,69.05
2023-02-14T07:48:50.645Z,66.20
2023-02-14T07:51:20.001Z,67.60
2023-02-14T07:53:49.294Z,67.22
2023-02-14T07:56:18.577Z,68.65
2023-02-14T07:58:49.634Z,68.20
2023-02-14T08:01:19.448Z,67.70
2023-02-14T08:03:52.735Z,66.30
2023-02-14T08:06:22.241Z,65.28
2023-02-14T08:08:51.602Z,66.28
2023-02-14T08:11:38.953Z,64.97
2023-02-14T08:14:08.269Z,63.58
2023-02-14T08:16:38.414Z,63.15
2023-02-14T08:19:07.932Z,62.15
2023-02-14T08:21:37.256Z,62.33
2023-02-14T08:24:06.908Z,59.95
2023-02-14T08:26:36.161Z,61.63
2023-02-14T08:29:05.676Z,60.80
2023-02-14T08:31:36.483Z,62.50
2023-02-14T08:34:07.189Z,60.67
2023-02-14T08:36:36.525Z,60.98
2023-02-14T08:39:06.584Z,58.38
2023-02-14T08:41:36.411Z,57.83
2023-02-14T08:44:05.921Z,59.63
2023-02-14T08:46:35.270Z,56.25
2023-02-14T08:49:04.951Z,58.55
2023-02-14T08:51:34.212Z,58.02
2023-02-14T08:54:03.693Z,56.80
2023-02-14T08:56:33.352Z,56.35
2023-02-14T08:59:02.609Z,56.68
2023-02-14T09:01:31.978Z,56.37
2023-02-14T09:04:02.211Z,54.00
2023-02-14T09:06:31.859Z,45.80
2023-02-14T09:09:02.549Z,35.38
2023-02-14T09:11:32.536Z,27.95
2023-02-14T09:14:02.088Z,24.07
2023-02-14T09:16:31.786Z,24.07
2023-02-14T09:19:01.376Z,22.67
2023-02-14T09:21:30.684Z,21.65
2023-02-14T09:23:59.917Z,20.95
2023-02-14T09:26:29.380Z,21.60
2023-02-14T09:28:59.212Z,20.95
2023-02-14T09:31:28.557Z,21.05
2023-02-14T09:34:16.354Z,20.08
2023-02-14T09:36:45.625Z,20.30
2023-02-14T09:39:15.179Z,21.48
2023-02-14T09:41:47.674Z,20.60
2023-02-14T09:46:58.164Z,20.92
2023-02-14T09:49:36.478Z,19.32
2023-02-14T09:52:08.178Z,20.00
2023-02-14T09:54:38.340Z,19.77
2023-02-14T09:57:33.805Z,20.35
2023-02-14T10:00:21.078Z,20.20
2023-02-14T10:03:08.357Z,20.80
2023-02-14T10:05:46.643Z,20.45
2023-02-14T10:08:39.958Z,20.23
2023-02-14T10:11:11.813Z,21.55
2023-02-14T10:13:58.827Z,20.27
2023-02-14T10:16:33.481Z,20.32
2023-02-14T10:19:05.261Z,20.80
2023-02-14T10:21:47.919Z,21.68
2023-02-14T10:24:26.007Z,20.68
2023-02-14T10:26:58.144Z,20.62
2023-02-14T10:29:27.729Z,21.00
2023-02-14T10:32:02.458Z,20.57
2023-02-14T10:34:43.643Z,20.65
2023-02-14T10:37:28.134Z,20.80
2023-02-14T10:40:09.736Z,21.68
2023-02-14T10:43:02.569Z,20.43
2023-02-14T10:48:17.160Z,21.42
2023-02-14T10:51:17.907Z,21.15
2023-02-14T10:54:07.960Z,21.68
2023-02-14T10:56:43.650Z,21.00
2023-02-14T10:59:19.334Z,21.87
2023-02-14T11:01:50.821Z,21.62
2023-02-14T11:04:22.450Z,21.40
2023-02-14T11:06:51.716Z,21.87
2023-02-14T11:09:21.587Z,21.87
2023-02-14T11:11:52.959Z,22.05
2023-02-14T11:14:26.261Z,21.63
2023-02-14T11:16:56.740Z,22.48
2023-02-14T11:19:28.859Z,22.07
2023-02-14T11:21:59.834Z,22.22
2023-02-14T11:24:35.079Z,21.97
2023-02-14T11:27:13.060Z,23.07
2023-02-14T11:29:49.191Z,23.00
2023-02-14T11:32:27.117Z,22.80
2023-02-14T11:35:05.177Z,23.73
2023-02-14T11:37:45.536Z,23.75
2023-02-14T11:40:32.547Z,22.75
2023-02-14T11:43:14.001Z,23.95
2023-02-14T11:45:38.633Z,24.25
2023-02-14T11:48:31.461Z,23.12
2023-02-14T11:51:17.306Z,23.05
2023-02-14T11:53:55.897Z,23.80
2023-02-14T11:56:25.776Z,23.20
2023-02-14T11:59:02.627Z,24.80
2023-02-14T12:01:33.886Z,23.35
2023-02-14T12:04:06.139Z,24.15
2023-02-14T12:09:25.987Z,23.27
2023-02-14T12:11:59.796Z,23.98
2023-02-14T12:14:34.476Z,23.55
2023-02-14T12:17:28.172Z,23.25
2023-02-14T12:20:15.933Z,23.95
2023-02-14T12:22:53.565Z,23.45
2023-02-14T12:25:34.833Z,23.32
2023-02-14T12:28:10.329Z,23.77
2023-02-14T12:30:40.237Z,23.98
2023-02-14T12:33:24.765Z,24.23
2023-02-14T12:36:09.068Z,24.47
2023-02-14T12:38:56.840Z,24.90
2023-02-14T12:41:47.546Z,25.08
2023-02-14T12:44:26.026Z,25.17
2023-02-14T12:47:08.262Z,23.42
2023-02-14T12:49:56.045Z,24.32
2023-02-14T12:52:34.319Z,24.45
2023-02-14T12:55:28.604Z,24.57
2023-02-14T12:58:03.538Z,24.87
2023-02-14T13:00:51.304Z,24.43
2023-02-14T13:03:30.346Z,24.25
2023-02-14T13:06:25.025Z,24.12
2023-02-14T13:09:15.456Z,23.98
2023-02-14T13:11:59.766Z,24.95
2023-02-14T13:14:50.124Z,24.80
2023-02-14T13:17:40.546Z,24.37
2023-02-14T13:20:41.172Z,24.65
2023-02-14T13:23:16.796Z,24.98
2023-02-14T13:26:04.150Z,24.10
2023-02-14T13:28:34.311Z,24.25
2023-02-14T13:31:04.785Z,25.48
2023-02-14T13:33:37.905Z,24.87
2023-02-14T13:36:12.621Z,24.35
2023-02-14T13:38:47.563Z,25.02
2023-02-14T13:41:17.539Z,25.60
2023-02-14T13:43:57.754Z,24.67
2023-02-14T13:46:39.201Z,25.08
2023-02-14T13:49:27.074Z,24.30
2023-02-14T13:52:05.043Z,25.88
2023-02-14T13:54:46.744Z,25.15
2023-02-14T13:57:36.798Z,25.00
2023-02-14T14:00:21.581Z,25.12
2023-02-14T14:02:53.573Z,24.47
2023-02-14T14:05:42.869Z,25.02
2023-02-14T14:08:25.432Z,24.90
2023-02-14T14:10:57.120Z,26.12
2023-02-14T14:13:46.723Z,25.37
2023-02-14T14:16:30.999Z,26.05
2023-02-14T14:19:06.953Z,25.57
2023-02-14T14:21:39.346Z,26.02
2023-02-14T14:24:26.063Z,25.62
2023-02-14T14:27:24.650Z,24.43
2023-02-14T14:29:59.831Z,25.25
2023-02-14T14:32:35.379Z,24.57
2023-02-14T14:35:10.672Z,24.57
2023-02-14T14:37:49.064Z,24.60
2023-02-14T14:40:31.462Z,25.05
2023-02-14T14:43:18.017Z,24.60
2023-02-14T14:45:48.173Z,23.60
2023-02-14T14:48:35.797Z,25.23
2023-02-14T14:51:06.683Z,24.80
2023-02-14T14:53:45.378Z,25.57
2023-02-14T14:56:20.554Z,23.62
2023-02-14T14:58:50.134Z,24.47
2023-02-14T15:01:39.935Z,25.80
2023-02-14T15:04:28.530Z,25.35
2023-02-14T15:06:59.586Z,25.10
2023-02-14T15:09:33.686Z,26.35
2023-02-14T15:12:21.807Z,26.25
2023-02-14T15:14:53.835Z,26.73
2023-02-14T15:17:26.048Z,27.13
2023-02-14T15:19:57.397Z,27.37
2023-02-14T15:22:33.820Z,27.65
2023-02-14T15:27:52.284Z,28.32
2023-02-14T15:30:26.291Z,28.38
2023-02-14T15:32:56.184Z,27.77
2023-02-14T15:35:28.682Z,28.10
2023-02-14T15:40:34.218Z,27.67
2023-02-14T15:43:29.053Z,28.27
2023-02-14T15:46:03.079Z,29.50
2023-02-14T15:48:34.141Z,28.92
2023-02-14T15:51:06.094Z,29.60
2023-02-14T15:53:41.535Z,29.05
2023-02-14T15:56:24.318Z,30.08
2023-02-14T16:01:24.257Z,29.27
2023-02-14T16:03:57.411Z,29.70
2023-02-14T16:06:42.754Z,29.82
2023-02-14T16:09:27.476Z,29.63
2023-02-14T16:11:56.962Z,29.40
2023-02-14T16:14:39.768Z,29.45
2023-02-14T16:17:14.085Z,34.10
2023-02-14T16:19:45.651Z,33.08
2023-02-14T16:22:26.247Z,31.37
2023-02-14T16:24:55.530Z,29.82
2023-02-14T16:27:24.875Z,30.45
2023-02-14T16:29:54.676Z,30.80
2023-02-14T16:32:25.773Z,30.40
2023-02-14T16:34:56.153Z,30.27
2023-02-14T16:37:31.736Z,30.95
2023-02-14T16:40:02.221Z,29.27
2023-02-14T16:42:32.710Z,30.08
2023-02-14T16:45:02.396Z,31.52
2023-02-14T16:47:31.961Z,31.90
2023-02-14T16:50:01.532Z,32.42
2023-02-14T16:52:31.105Z,31.90
2023-02-14T16:55:00.412Z,31.00
2023-02-14T16:57:33.075Z,30.20
2023-02-14T17:00:02.520Z,31.80
2023-02-14T17:02:32.177Z,31.93
2023-02-14T17:05:01.679Z,32.20
2023-02-14T17:07:32.557Z,32.45
2023-02-14T17:10:18.427Z,30.92
2023-02-14T17:12:48.832Z,32.40
2023-02-14T17:15:21.667Z,33.75
2023-02-14T17:17:55.932Z,31.73
2023-02-14T17:20:25.608Z,31.70
2023-02-14T17:23:01.485Z,34.73
2023-02-14T17:25:31.856Z,34.55
2023-02-14T17:28:02.202Z,36.05
2023-02-14T17:30:31.886Z,35.88
2023-02-14T17:33:01.532Z,35.52
2023-02-14T17:35:31.109Z,33.83
2023-02-14T17:38:00.608Z,34.45
2023-02-14T17:40:30.917Z,34.98
2023-02-14T17:43:01.757Z,30.50
2023-02-14T17:45:31.044Z,35.35
2023-02-14T17:48:01.684Z,35.08
2023-02-14T17:50:31.302Z,36.25
2023-02-14T17:53:00.744Z,34.58
2023-02-14T17:55:29.948Z,34.00
2023-02-14T17:57:59.412Z,33.58
2023-02-14T18:00:28.933Z,31.77
2023-02-14T18:02:58.723Z,35.28
2023-02-14T18:05:28.129Z,37.35
2023-02-14T18:07:58.244Z,37.48
2023-02-14T18:10:27.757Z,40.05
2023-02-14T18:12:57.163Z,40.05
2023-02-14T18:15:27.799Z,40.38
2023-02-14T18:17:57.262Z,40.12
2023-02-14T18:20:26.960Z,40.17
2023-02-14T18:22:56.538Z,40.95
2023-02-14T18:25:26.066Z,39.88
2023-02-14T18:27:55.544Z,38.23
2023-02-14T18:30:25.133Z,38.65
2023-02-14T18:32:54.881Z,34.65
2023-02-14T18:35:25.249Z,33.00
2023-02-14T18:37:54.522Z,36.80
2023-02-14T18:40:23.786Z,37.58
2023-02-14T18:42:53.146Z,40.20
2023-02-14T18:45:22.552Z,39.92
2023-02-14T18:47:52.263Z,43.02
2023-02-14T18:50:21.652Z,41.23
2023-02-14T18:52:50.955Z,39.45
2023-02-14T18:55:20.186Z,43.45
2023-02-14T18:57:49.587Z,47.58
2023-02-14T19:00:19.390Z,44.85
2023-02-14T19:02:49.385Z,39.92
2023-02-14T19:05:19.351Z,37.50
2023-02-14T19:07:48.852Z,36.20
2023-02-14T19:10:18.489Z,35.23
2023-02-14T19:12:47.809Z,37.67
2023-02-14T19:15:19.137Z,41.35
2023-02-14T19:17:48.770Z,45.85
2023-02-14T19:20:18.119Z,46.23
2023-02-14T19:22:48.400Z,46.88
2023-02-14T19:25:17.973Z,47.67
2023-02-14T19:27:48.110Z,48.48
2023-02-14T19:30:18.088Z,49.15
2023-02-14T19:32:48.035Z,48.92
2023-02-14T19:35:17.443Z,43.90
2023-02-14T19:37:47.717Z,44.63
2023-02-14T19:40:17.286Z,40.23
2023-02-14T19:42:46.709Z,41.55
2023-02-14T19:45:17.010Z,42.53
2023-02-14T19:47:47.705Z,43.63
2023-02-14T19:50:19.448Z,46.13
2023-02-14T19:52:50.123Z,39.70
2023-02-14T19:55:22.339Z,40.20
2023-02-14T19:57:51.863Z,39.38
2023-02-14T20:00:21.436Z,43.85
2023-02-14T20:02:51.221Z,39.83
2023-02-14T20:05:21.046Z,39.20
2023-02-14T20:07:55.173Z,42.95
2023-02-14T20:10:24.601Z,44.08
2023-02-14T20:12:57.488Z,43.95
2023-02-14T20:15:29.232Z,42.05
2023-02-14T20:17:58.700Z,44.73
2023-02-14T20:20:28.305Z,44.80
2023-02-14T20:22:57.605Z,42.48
2023-02-14T20:25:27.100Z,45.78
2023-02-14T20:27:56.424Z,47.75
2023-02-14T20:30:26.030Z,51.23
2023-02-14T20:32:55.325Z,48.95
2023-02-14T20:35:24.792Z,50.00
2023-02-14T20:37:55.036Z,49.63
2023-02-14T20:40:24.492Z,43.30
2023-02-14T20:42:54.002Z,44.40
2023-02-14T20:45:26.340Z,52.03
2023-02-14T20:47:55.673Z,59.77
2023-02-14T20:50:24.994Z,57.33
2023-02-14T20:52:55.263Z,55.52
2023-02-14T20:55:26.571Z,54.35
2023-02-14T20:57:58.705Z,48.50
2023-02-14T21:00:28.281Z,50.58
2023-02-14T21:02:58.786Z,51.73
2023-02-14T21:05:28.960Z,48.73
2023-02-14T21:07:58.506Z,47.40
2023-02-14T21:10:28.469Z,52.33
2023-02-14T21:12:58.394Z,54.08
2023-02-14T21:15:28.005Z,51.18
2023-02-14T21:17:57.788Z,53.83
2023-02-14T21:20:27.216Z,53.15
2023-02-14T21:22:57.670Z,56.18
2023-02-14T21:25:27.131Z,52.23
2023-02-14T21:27:56.393Z,45.33
2023-02-14T21:30:27.926Z,49.38
2023-02-14T21:32:57.698Z,55.17
2023-02-14T21:35:27.184Z,51.88
2023-02-14T21:37:56.493Z,53.65
2023-02-14T21:40:25.817Z,54.75
2023-02-14T21:42:55.312Z,55.98
2023-02-14T21:45:42.280Z,57.83
2023-02-14T21:48:29.895Z,55.20
2023-02-14T21:51:00.574Z,56.80
2023-02-14T21:53:32.682Z,57.90
2023-02-14T21:56:13.330Z,52.40
2023-02-14T21:58:53.371Z,52.40
2023-02-14T22:01:27.593Z,52.00
2023-02-14T22:06:29.248Z,53.02
2023-02-14T22:09:01.774Z,78.75
2023-02-14T22:11:38.937Z,66.47
2023-02-14T22:14:14.449Z,55.48
2023-02-14T22:16:44.354Z,52.80
2023-02-14T22:19:16.816Z,55.25
2023-02-14T22:22:06.813Z,54.90
2023-02-14T22:24:37.347Z,55.35
2023-02-14T22:27:09.128Z,54.23
2023-02-14T22:29:39.264Z,56.10
2023-02-14T22:32:10.457Z,52.33
2023-02-14T22:34:41.943Z,55.65
2023-02-14T22:37:12.079Z,56.90
2023-02-14T22:39:42.000Z,54.13
2023-02-14T22:42:11.285Z,52.43
2023-02-14T22:44:43.116Z,52.95
2023-02-14T22:47:19.547Z,52.60
2023-02-14T22:49:49.146Z,54.77
2023-02-14T22:52:18.454Z,58.80
2023-02-14T22:54:48.699Z,56.30
2023-02-14T22:57:20.302Z,57.10
2023-02-14T22:59:49.346Z,52.60
2023-02-14T23:02:18.685Z,54.95
2023-02-14T23:04:49.495Z,59.73
2023-02-14T23:07:18.703Z,59.03
2023-02-14T23:09:49.562Z,59.93
2023-02-14T23:12:36.576Z,59.38
2023-02-14T23:15:24.247Z,59.05
2023-02-14T23:18:11.324Z,59.15
2023-02-14T23:20:58.697Z,61.25
2023-02-14T23:23:32.534Z,58.55
2023-02-14T23:26:02.296Z,59.95
2023-02-14T23:28:31.763Z,60.75
2023-02-14T23:31:02.776Z,63.65
2023-02-14T23:33:31.998Z,63.50
2023-02-14T23:36:04.137Z,58.80
2023-02-14T23:38:33.347Z,61.28
2023-02-14T23:41:28.336Z,63.08
2023-02-14T23:43:57.680Z,63.70
2023-02-14T23:46:27.262Z,65.08
2023-02-14T23:48:56.564Z,62.27
2023-02-14T23:51:25.877Z,59.13
2023-02-14T23:53:55.567Z,56.95
2023-02-14T23:56:25.204Z,62.62
2023-02-14T23:58:54.433Z,62.58
